sensor_id;sensor_type;location;lat;lon;timestamp;P1;durP1;ratioP1;P2;durP2;ratioP2
69502;SDS011;56704;54.242;12.442;2022-09-02T00:02:13;1.87;;;0.37;;
69502;SDS011;56704;54.242;12.442;2022-09-02T00:04:42;1.55;;;0.35;;
69502;SDS011;56704;54.242;12.442;2022-09-02T00:07:10;2.33;;;0.40;;
69502;SDS011;56704;54.242;12.442;2022-09-02T00:09:38;1.30;;;0.20;;
69502;SDS011;56704;54.242;12.442;2022-09-02T00:12:04;2.08;;;0.40;;
69502;SDS011;56704;54.242;12.442;2022-09-02T00:14:37;3.73;;;0.40;;
69502;SDS011;56704;54.242;12.442;2022-09-02T00:17:04;4.22;;;0.30;;
69502;SDS011;56704;54.242;12.442;2022-09-02T00:19:31;1.75;;;0.20;;
69502;SDS011;56704;54.242;12.442;2022-09-02T00:22:00;1.80;;;0.40;;
69502;SDS011;56704;54.242;12.442;2022-09-02T00:24:28;2.38;;;0.40;;
69502;SDS011;56704;54.242;12.442;2022-09-02T00:26:55;1.67;;;0.30;;
69502;SDS011;56704;54.242;12.442;2022-09-02T00:29:22;3.10;;;0.30;;
69502;SDS011;56704;54.242;12.442;2022-09-02T00:31:48;1.38;;;0.30;;
69502;SDS011;56704;54.242;12.442;2022-09-02T00:34:15;2.15;;;0.50;;
69502;SDS011;56704;54.242;12.442;2022-09-02T00:36:44;3.10;;;0.50;;
69502;SDS011;56704;54.242;12.442;2022-09-02T00:39:15;2.33;;;0.60;;
69502;SDS011;56704;54.242;12.442;2022-09-02T00:41:43;2.60;;;1.20;;
69502;SDS011;56704;54.242;12.442;2022-09-02T00:44:11;2.50;;;0.40;;
69502;SDS011;56704;54.242;12.442;2022-09-02T00:46:40;1.95;;;0.40;;
69502;SDS011;56704;54.242;12.442;2022-09-02T00:49:08;2.13;;;0.50;;
69502;SDS011;56704;54.242;12.442;2022-09-02T00:51:43;1.30;;;0.30;;
69502;SDS011;56704;54.242;12.442;2022-09-02T00:54:14;1.80;;;0.50;;
69502;SDS011;56704;54.242;12.442;2022-09-02T00:56:44;2.00;;;0.32;;
69502;SDS011;56704;54.242;12.442;2022-09-02T00:59:17;1.83;;;0.30;;
69502;SDS011;56704;54.242;12.442;2022-09-02T01:01:47;2.85;;;0.40;;
69502;SDS011;56704;54.242;12.442;2022-09-02T01:04:15;1.87;;;0.30;;
69502;SDS011;56704;54.242;12.442;2022-09-02T01:06:44;1.90;;;0.43;;
69502;SDS011;56704;54.242;12.442;2022-09-02T01:09:14;2.17;;;0.40;;
69502;SDS011;56704;54.242;12.442;2022-09-02T01:11:43;1.70;;;0.40;;
69502;SDS011;56704;54.242;12.442;2022-09-02T01:14:13;2.58;;;0.40;;
69502;SDS011;56704;54.242;12.442;2022-09-02T01:16:43;1.90;;;0.30;;
69502;SDS011;56704;54.242;12.442;2022-09-02T01:19:17;1.80;;;0.38;;
69502;SDS011;56704;54.242;12.442;2022-09-02T01:21:49;1.65;;;0.30;;
69502;SDS011;56704;54.242;12.442;2022-09-02T01:24:16;2.38;;;0.43;;
69502;SDS011;56704;54.242;12.442;2022-09-02T01:26:46;2.10;;;0.40;;
69502;SDS011;56704;54.242;12.442;2022-09-02T01:29:16;1.43;;;0.30;;
69502;SDS011;56704;54.242;12.442;2022-09-02T01:31:45;3.03;;;0.40;;
69502;SDS011;56704;54.242;12.442;2022-09-02T01:34:12;2.25;;;0.30;;
69502;SDS011;56704;54.242;12.442;2022-09-02T01:36:39;2.88;;;0.40;;
69502;SDS011;56704;54.242;12.442;2022-09-02T01:39:09;2.63;;;0.60;;
69502;SDS011;56704;54.242;12.442;2022-09-02T01:41:37;3.23;;;0.53;;
69502;SDS011;56704;54.242;12.442;2022-09-02T01:44:06;1.52;;;0.30;;
69502;SDS011;56704;54.242;12.442;2022-09-02T01:46:34;3.80;;;0.40;;
69502;SDS011;56704;54.242;12.442;2022-09-02T01:49:02;1.50;;;0.22;;
69502;SDS011;56704;54.242;12.442;2022-09-02T01:51:29;1.80;;;0.40;;
69502;SDS011;56704;54.242;12.442;2022-09-02T01:53:56;1.60;;;0.30;;
69502;SDS011;56704;54.242;12.442;2022-09-02T01:56:24;2.08;;;0.40;;
69502;SDS011;56704;54.242;12.442;2022-09-02T01:58:50;2.78;;;0.60;;
69502;SDS011;56704;54.242;12.442;2022-09-02T02:01:17;3.28;;;0.32;;
69502;SDS011;56704;54.242;12.442;2022-09-02T02:03:44;3.05;;;0.43;;
69502;SDS011;56704;54.242;12.442;2022-09-02T02:06:12;2.90;;;0.40;;
69502;SDS011;56704;54.242;12.442;2022-09-02T02:08:42;3.30;;;0.50;;
69502;SDS011;56704;54.242;12.442;2022-09-02T02:11:10;2.42;;;0.50;;
69502;SDS011;56704;54.242;12.442;2022-09-02T02:13:38;2.53;;;0.40;;
69502;SDS011;56704;54.242;12.442;2022-09-02T02:16:05;2.25;;;0.60;;
69502;SDS011;56704;54.242;12.442;2022-09-02T02:18:32;1.60;;;0.30;;
69502;SDS011;56704;54.242;12.442;2022-09-02T02:20:59;2.35;;;0.45;;
69502;SDS011;56704;54.242;12.442;2022-09-02T02:23:26;2.25;;;0.50;;
69502;SDS011;56704;54.242;12.442;2022-09-02T02:25:52;2.05;;;0.38;;
69502;SDS011;56704;54.242;12.442;2022-09-02T02:28:19;2.58;;;0.43;;
69502;SDS011;56704;54.242;12.442;2022-09-02T02:30:47;2.33;;;0.50;;
69502;SDS011;56704;54.242;12.442;2022-09-02T02:33:15;2.88;;;0.38;;
69502;SDS011;56704;54.242;12.442;2022-09-02T02:35:42;2.75;;;0.45;;
69502;SDS011;56704;54.242;12.442;2022-09-02T02:38:08;2.90;;;0.47;;
69502;SDS011;56704;54.242;12.442;2022-09-02T02:40:36;3.75;;;0.50;;
69502;SDS011;56704;54.242;12.442;2022-09-02T02:43:03;2.70;;;0.60;;
69502;SDS011;56704;54.242;12.442;2022-09-02T02:45:30;2.50;;;0.52;;
69502;SDS011;56704;54.242;12.442;2022-09-02T02:47:59;2.42;;;0.50;;
69502;SDS011;56704;54.242;12.442;2022-09-02T02:50:26;2.63;;;0.52;;
69502;SDS011;56704;54.242;12.442;2022-09-02T02:52:53;4.15;;;0.70;;
69502;SDS011;56704;54.242;12.442;2022-09-02T02:55:22;2.20;;;0.50;;
69502;SDS011;56704;54.242;12.442;2022-09-02T02:57:51;2.28;;;0.50;;
69502;SDS011;56704;54.242;12.442;2022-09-02T03:00:19;2.38;;;0.60;;
69502;SDS011;56704;54.242;12.442;2022-09-02T03:02:48;2.63;;;0.63;;
69502;SDS011;56704;54.242;12.442;2022-09-02T03:05:16;3.28;;;0.82;;
69502;SDS011;56704;54.242;12.442;2022-09-02T03:07:43;2.33;;;0.50;;
69502;SDS011;56704;54.242;12.442;2022-09-02T03:10:10;3.75;;;0.70;;
69502;SDS011;56704;54.242;12.442;2022-09-02T03:12:39;3.30;;;0.77;;
69502;SDS011;56704;54.242;12.442;2022-09-02T03:15:12;2.70;;;0.60;;
69502;SDS011;56704;54.242;12.442;2022-09-02T03:17:41;3.45;;;1.00;;
69502;SDS011;56704;54.242;12.442;2022-09-02T03:20:07;2.37;;;0.60;;
69502;SDS011;56704;54.242;12.442;2022-09-02T03:22:37;2.08;;;0.60;;
69502;SDS011;56704;54.242;12.442;2022-09-02T03:25:05;2.72;;;0.65;;
69502;SDS011;56704;54.242;12.442;2022-09-02T03:27:35;3.13;;;0.57;;
69502;SDS011;56704;54.242;12.442;2022-09-02T03:30:05;3.63;;;0.80;;
69502;SDS011;56704;54.242;12.442;2022-09-02T03:32:37;3.20;;;0.90;;
69502;SDS011;56704;54.242;12.442;2022-09-02T03:35:05;3.00;;;0.70;;
69502;SDS011;56704;54.242;12.442;2022-09-02T03:37:34;3.45;;;0.75;;
69502;SDS011;56704;54.242;12.442;2022-09-02T03:40:03;2.47;;;0.68;;
69502;SDS011;56704;54.242;12.442;2022-09-02T03:42:34;2.42;;;0.52;;
69502;SDS011;56704;54.242;12.442;2022-09-02T03:45:00;2.93;;;0.63;;
69502;SDS011;56704;54.242;12.442;2022-09-02T03:47:28;3.50;;;0.52;;
69502;SDS011;56704;54.242;12.442;2022-09-02T03:49:54;3.60;;;0.60;;
69502;SDS011;56704;54.242;12.442;2022-09-02T03:52:29;2.83;;;0.70;;
69502;SDS011;56704;54.242;12.442;2022-09-02T03:54:56;2.40;;;0.65;;
69502;SDS011;56704;54.242;12.442;2022-09-02T03:57:24;1.90;;;0.50;;
69502;SDS011;56704;54.242;12.442;2022-09-02T03:59:51;3.53;;;0.70;;
69502;SDS011;56704;54.242;12.442;2022-09-02T04:02:18;2.95;;;0.63;;
69502;SDS011;56704;54.242;12.442;2022-09-02T04:04:45;2.90;;;0.70;;
69502;SDS011;56704;54.242;12.442;2022-09-02T04:07:12;2.85;;;0.55;;
69502;SDS011;56704;54.242;12.442;2022-09-02T04:09:41;2.50;;;0.70;;
69502;SDS011;56704;54.242;12.442;2022-09-02T04:12:07;2.95;;;0.80;;
69502;SDS011;56704;54.242;12.442;2022-09-02T04:14:36;4.05;;;0.70;;
69502;SDS011;56704;54.242;12.442;2022-09-02T04:17:03;3.92;;;0.90;;
69502;SDS011;56704;54.242;12.442;2022-09-02T04:19:30;2.90;;;0.68;;
69502;SDS011;56704;54.242;12.442;2022-09-02T04:21:56;2.60;;;0.60;;
69502;SDS011;56704;54.242;12.442;2022-09-02T04:24:23;2.63;;;0.60;;
69502;SDS011;56704;54.242;12.442;2022-09-02T04:26:50;3.83;;;0.73;;
69502;SDS011;56704;54.242;12.442;2022-09-02T04:29:17;4.57;;;0.90;;
69502;SDS011;56704;54.242;12.442;2022-09-02T04:31:45;3.08;;;0.85;;
69502;SDS011;56704;54.242;12.442;2022-09-02T04:34:12;3.20;;;0.80;;
69502;SDS011;56704;54.242;12.442;2022-09-02T04:36:39;3.22;;;0.80;;
69502;SDS011;56704;54.242;12.442;2022-09-02T04:39:06;6.38;;;0.95;;
69502;SDS011;56704;54.242;12.442;2022-09-02T04:41:34;4.30;;;0.80;;
69502;SDS011;56704;54.242;12.442;2022-09-02T04:44:02;3.55;;;0.80;;
69502;SDS011;56704;54.242;12.442;2022-09-02T04:46:29;4.90;;;1.00;;
69502;SDS011;56704;54.242;12.442;2022-09-02T04:48:57;3.22;;;0.88;;
69502;SDS011;56704;54.242;12.442;2022-09-02T04:51:25;3.40;;;0.90;;
69502;SDS011;56704;54.242;12.442;2022-09-02T04:53:52;5.03;;;0.90;;
69502;SDS011;56704;54.242;12.442;2022-09-02T04:56:20;2.72;;;0.73;;
69502;SDS011;56704;54.242;12.442;2022-09-02T04:58:50;6.47;;;0.90;;
69502;SDS011;56704;54.242;12.442;2022-09-02T05:01:19;5.55;;;0.75;;
69502;SDS011;56704;54.242;12.442;2022-09-02T05:03:49;7.13;;;1.30;;
69502;SDS011;56704;54.242;12.442;2022-09-02T05:06:21;4.40;;;1.15;;
69502;SDS011;56704;54.242;12.442;2022-09-02T05:08:51;4.10;;;0.90;;
69502;SDS011;56704;54.242;12.442;2022-09-02T05:11:19;5.17;;;0.93;;
69502;SDS011;56704;54.242;12.442;2022-09-02T05:13:49;4.00;;;0.70;;
69502;SDS011;56704;54.242;12.442;2022-09-02T05:16:20;4.35;;;1.00;;
69502;SDS011;56704;54.242;12.442;2022-09-02T05:18:49;3.42;;;1.13;;
69502;SDS011;56704;54.242;12.442;2022-09-02T05:21:17;5.40;;;0.95;;
69502;SDS011;56704;54.242;12.442;2022-09-02T05:23:48;3.80;;;0.80;;
69502;SDS011;56704;54.242;12.442;2022-09-02T05:26:14;2.78;;;0.70;;
69502;SDS011;56704;54.242;12.442;2022-09-02T05:28:42;7.50;;;1.00;;
69502;SDS011;56704;54.242;12.442;2022-09-02T05:31:09;2.58;;;0.88;;
69502;SDS011;56704;54.242;12.442;2022-09-02T05:33:37;2.60;;;0.70;;
69502;SDS011;56704;54.242;12.442;2022-09-02T05:36:09;3.17;;;0.93;;
69502;SDS011;56704;54.242;12.442;2022-09-02T05:38:38;3.13;;;0.70;;
69502;SDS011;56704;54.242;12.442;2022-09-02T05:41:10;3.78;;;0.82;;
69502;SDS011;56704;54.242;12.442;2022-09-02T05:43:40;3.00;;;0.90;;
69502;SDS011;56704;54.242;12.442;2022-09-02T05:46:09;3.20;;;0.93;;
69502;SDS011;56704;54.242;12.442;2022-09-02T05:48:41;2.63;;;0.77;;
69502;SDS011;56704;54.242;12.442;2022-09-02T05:51:26;3.15;;;0.80;;
69502;SDS011;56704;54.242;12.442;2022-09-02T05:53:54;3.63;;;0.80;;
69502;SDS011;56704;54.242;12.442;2022-09-02T05:56:26;2.60;;;0.68;;
69502;SDS011;56704;54.242;12.442;2022-09-02T05:58:53;3.13;;;0.80;;
69502;SDS011;56704;54.242;12.442;2022-09-02T06:01:21;6.87;;;2.10;;
69502;SDS011;56704;54.242;12.442;2022-09-02T06:03:49;17.02;;;5.07;;
69502;SDS011;56704;54.242;12.442;2022-09-02T06:06:20;15.85;;;4.75;;
69502;SDS011;56704;54.242;12.442;2022-09-02T06:08:48;11.98;;;4.18;;
69502;SDS011;56704;54.242;12.442;2022-09-02T06:11:16;5.13;;;1.52;;
69502;SDS011;56704;54.242;12.442;2022-09-02T06:13:44;3.00;;;0.90;;
69502;SDS011;56704;54.242;12.442;2022-09-02T06:16:15;4.50;;;1.35;;
69502;SDS011;56704;54.242;12.442;2022-09-02T06:18:43;6.00;;;1.40;;
69502;SDS011;56704;54.242;12.442;2022-09-02T06:21:11;4.82;;;1.08;;
69502;SDS011;56704;54.242;12.442;2022-09-02T06:23:39;3.88;;;0.82;;
69502;SDS011;56704;54.242;12.442;2022-09-02T06:26:07;4.13;;;0.60;;
69502;SDS011;56704;54.242;12.442;2022-09-02T06:28:34;4.75;;;0.88;;
69502;SDS011;56704;54.242;12.442;2022-09-02T06:31:06;9.00;;;0.93;;
69502;SDS011;56704;54.242;12.442;2022-09-02T06:33:34;3.42;;;1.00;;
69502;SDS011;56704;54.242;12.442;2022-09-02T06:36:04;3.38;;;0.90;;
69502;SDS011;56704;54.242;12.442;2022-09-02T06:38:34;6.47;;;0.70;;
69502;SDS011;56704;54.242;12.442;2022-09-02T06:41:06;3.20;;;0.60;;
69502;SDS011;56704;54.242;12.442;2022-09-02T06:43:38;2.85;;;0.40;;
69502;SDS011;56704;54.242;12.442;2022-09-02T06:46:04;2.13;;;0.50;;
69502;SDS011;56704;54.242;12.442;2022-09-02T06:48:33;2.35;;;0.40;;
69502;SDS011;56704;54.242;12.442;2022-09-02T06:51:01;2.17;;;0.50;;
69502;SDS011;56704;54.242;12.442;2022-09-02T06:53:31;2.03;;;0.40;;
69502;SDS011;56704;54.242;12.442;2022-09-02T06:55:58;3.08;;;0.63;;
69502;SDS011;56704;54.242;12.442;2022-09-02T06:58:26;4.57;;;0.50;;
69502;SDS011;56704;54.242;12.442;2022-09-02T07:00:52;2.03;;;0.50;;
69502;SDS011;56704;54.242;12.442;2022-09-02T07:03:20;2.00;;;0.60;;
69502;SDS011;56704;54.242;12.442;2022-09-02T07:06:05;1.70;;;0.40;;
69502;SDS011;56704;54.242;12.442;2022-09-02T07:08:35;2.55;;;0.50;;
69502;SDS011;56704;54.242;12.442;2022-09-02T07:11:06;1.77;;;0.40;;
69502;SDS011;56704;54.242;12.442;2022-09-02T07:13:40;3.00;;;0.50;;
69502;SDS011;56704;54.242;12.442;2022-09-02T07:16:06;1.80;;;0.20;;
69502;SDS011;56704;54.242;12.442;2022-09-02T07:18:34;1.98;;;0.43;;
69502;SDS011;56704;54.242;12.442;2022-09-02T07:21:01;1.25;;;0.30;;
69502;SDS011;56704;54.242;12.442;2022-09-02T07:23:28;4.07;;;0.50;;
69502;SDS011;56704;54.242;12.442;2022-09-02T07:25:54;1.88;;;0.45;;
69502;SDS011;56704;54.242;12.442;2022-09-02T07:28:22;2.20;;;0.47;;
69502;SDS011;56704;54.242;12.442;2022-09-02T07:30:48;1.92;;;0.47;;
69502;SDS011;56704;54.242;12.442;2022-09-02T07:33:18;1.88;;;0.40;;
69502;SDS011;56704;54.242;12.442;2022-09-02T07:35:47;1.52;;;0.40;;
69502;SDS011;56704;54.242;12.442;2022-09-02T07:38:16;1.30;;;0.30;;
69502;SDS011;56704;54.242;12.442;2022-09-02T07:40:43;1.53;;;0.23;;
69502;SDS011;56704;54.242;12.442;2022-09-02T07:43:13;2.20;;;0.40;;
69502;SDS011;56704;54.242;12.442;2022-09-02T07:45:41;1.25;;;0.20;;
69502;SDS011;56704;54.242;12.442;2022-09-02T07:48:10;1.27;;;0.20;;
69502;SDS011;56704;54.242;12.442;2022-09-02T07:50:36;2.95;;;0.45;;
69502;SDS011;56704;54.242;12.442;2022-09-02T07:53:07;1.23;;;0.37;;
69502;SDS011;56704;54.242;12.442;2022-09-02T07:55:39;2.00;;;0.20;;
69502;SDS011;56704;54.242;12.442;2022-09-02T07:58:06;2.15;;;0.52;;
69502;SDS011;56704;54.242;12.442;2022-09-02T08:00:32;1.80;;;0.40;;
69502;SDS011;56704;54.242;12.442;2022-09-02T08:02:59;2.15;;;0.40;;
69502;SDS011;56704;54.242;12.442;2022-09-02T08:05:31;2.97;;;0.30;;
69502;SDS011;56704;54.242;12.442;2022-09-02T08:07:59;1.63;;;0.40;;
69502;SDS011;56704;54.242;12.442;2022-09-02T08:10:27;2.00;;;0.40;;
69502;SDS011;56704;54.242;12.442;2022-09-02T08:12:55;1.88;;;0.35;;
69502;SDS011;56704;54.242;12.442;2022-09-02T08:15:24;1.40;;;0.40;;
69502;SDS011;56704;54.242;12.442;2022-09-02T08:17:52;2.13;;;0.43;;
69502;SDS011;56704;54.242;12.442;2022-09-02T08:20:19;1.75;;;0.50;;
69502;SDS011;56704;54.242;12.442;2022-09-02T08:22:47;3.30;;;0.40;;
69502;SDS011;56704;54.242;12.442;2022-09-02T08:25:14;2.25;;;0.40;;
69502;SDS011;56704;54.242;12.442;2022-09-02T08:27:43;1.70;;;0.30;;
69502;SDS011;56704;54.242;12.442;2022-09-02T08:30:11;1.53;;;0.40;;
69502;SDS011;56704;54.242;12.442;2022-09-02T08:32:39;1.20;;;0.30;;
69502;SDS011;56704;54.242;12.442;2022-09-02T08:35:07;1.80;;;0.40;;
69502;SDS011;56704;54.242;12.442;2022-09-02T08:37:37;1.63;;;0.50;;
69502;SDS011;56704;54.242;12.442;2022-09-02T08:40:04;1.65;;;0.50;;
69502;SDS011;56704;54.242;12.442;2022-09-02T08:42:40;2.27;;;0.50;;
69502;SDS011;56704;54.242;12.442;2022-09-02T08:45:13;1.30;;;0.40;;
69502;SDS011;56704;54.242;12.442;2022-09-02T08:47:50;1.77;;;0.30;;
69502;SDS011;56704;54.242;12.442;2022-09-02T08:50:24;2.15;;;0.40;;
69502;SDS011;56704;54.242;12.442;2022-09-02T08:52:54;2.15;;;0.45;;
69502;SDS011;56704;54.242;12.442;2022-09-02T08:55:27;2.10;;;0.47;;
69502;SDS011;56704;54.242;12.442;2022-09-02T08:58:01;1.75;;;0.40;;
69502;SDS011;56704;54.242;12.442;2022-09-02T09:00:32;2.22;;;0.40;;
69502;SDS011;56704;54.242;12.442;2022-09-02T09:03:11;2.10;;;0.50;;
69502;SDS011;56704;54.242;12.442;2022-09-02T09:05:46;2.45;;;0.52;;
69502;SDS011;56704;54.242;12.442;2022-09-02T09:08:22;1.37;;;0.40;;
69502;SDS011;56704;54.242;12.442;2022-09-02T09:10:59;2.10;;;0.52;;
69502;SDS011;56704;54.242;12.442;2022-09-02T09:16:38;1.08;;;0.30;;
69502;SDS011;56704;54.242;12.442;2022-09-02T09:19:10;1.40;;;0.50;;
69502;SDS011;56704;54.242;12.442;2022-09-02T09:21:42;1.73;;;0.40;;
69502;SDS011;56704;54.242;12.442;2022-09-02T09:24:16;1.95;;;0.60;;
69502;SDS011;56704;54.242;12.442;2022-09-02T09:26:47;3.08;;;0.50;;
69502;SDS011;56704;54.242;12.442;2022-09-02T09:29:16;1.38;;;0.38;;
69502;SDS011;56704;54.242;12.442;2022-09-02T09:31:42;1.15;;;0.32;;
69502;SDS011;56704;54.242;12.442;2022-09-02T09:34:12;2.20;;;0.50;;
69502;SDS011;56704;54.242;12.442;2022-09-02T09:36:50;1.60;;;0.50;;
69502;SDS011;56704;54.242;12.442;2022-09-02T09:39:20;1.42;;;0.50;;
69502;SDS011;56704;54.242;12.442;2022-09-02T09:41:50;1.95;;;0.50;;
69502;SDS011;56704;54.242;12.442;2022-09-02T09:44:39;2.20;;;0.30;;
69502;SDS011;56704;54.242;12.442;2022-09-02T09:47:09;1.80;;;0.50;;
69502;SDS011;56704;54.242;12.442;2022-09-02T09:49:39;1.30;;;0.30;;
69502;SDS011;56704;54.242;12.442;2022-09-02T09:52:06;1.48;;;0.47;;
69502;SDS011;56704;54.242;12.442;2022-09-02T09:54:34;2.05;;;0.35;;
69502;SDS011;56704;54.242;12.442;2022-09-02T09:57:13;1.58;;;0.50;;
69502;SDS011;56704;54.242;12.442;2022-09-02T09:59:45;2.53;;;0.43;;
69502;SDS011;56704;54.242;12.442;2022-09-02T10:02:20;1.05;;;0.40;;
69502;SDS011;56704;54.242;12.442;2022-09-02T10:04:48;1.98;;;0.40;;
69502;SDS011;56704;54.242;12.442;2022-09-02T10:10:11;1.45;;;0.40;;
69502;SDS011;56704;54.242;12.442;2022-09-02T10:12:42;1.40;;;0.40;;
69502;SDS011;56704;54.242;12.442;2022-09-02T10:15:12;1.17;;;0.40;;
69502;SDS011;56704;54.242;12.442;2022-09-02T10:17:41;2.50;;;0.45;;
69502;SDS011;56704;54.242;12.442;2022-09-02T10:20:16;1.42;;;0.30;;
69502;SDS011;56704;54.242;12.442;2022-09-02T10:25:51;1.30;;;0.37;;
69502;SDS011;56704;54.242;12.442;2022-09-02T10:28:29;1.00;;;0.35;;
69502;SDS011;56704;54.242;12.442;2022-09-02T10:31:11;1.40;;;0.40;;
69502;SDS011;56704;54.242;12.442;2022-09-02T10:33:48;1.40;;;0.50;;
69502;SDS011;56704;54.242;12.442;2022-09-02T10:36:27;1.35;;;0.38;;
69502;SDS011;56704;54.242;12.442;2022-09-02T10:39:06;1.20;;;0.40;;
69502;SDS011;56704;54.242;12.442;2022-09-02T10:41:40;1.98;;;0.30;;
69502;SDS011;56704;54.242;12.442;2022-09-02T10:44:26;2.05;;;0.40;;
69502;SDS011;56704;54.242;12.442;2022-09-02T10:47:01;2.88;;;0.40;;
69502;SDS011;56704;54.242;12.442;2022-09-02T10:49:36;2.30;;;0.40;;
69502;SDS011;56704;54.242;12.442;2022-09-02T10:52:12;2.10;;;0.40;;
69502;SDS011;56704;54.242;12.442;2022-09-02T10:54:49;2.03;;;0.50;;
69502;SDS011;56704;54.242;12.442;2022-09-02T10:57:22;2.00;;;0.30;;
69502;SDS011;56704;54.242;12.442;2022-09-02T10:59:56;1.95;;;0.50;;
69502;SDS011;56704;54.242;12.442;2022-09-02T11:02:33;1.92;;;0.50;;
69502;SDS011;56704;54.242;12.442;2022-09-02T11:05:06;1.60;;;0.50;;
69502;SDS011;56704;54.242;12.442;2022-09-02T11:07:40;1.00;;;0.32;;
69502;SDS011;56704;54.242;12.442;2022-09-02T11:10:14;2.42;;;0.70;;
69502;SDS011;56704;54.242;12.442;2022-09-02T11:12:46;1.20;;;0.50;;
69502;SDS011;56704;54.242;12.442;2022-09-02T11:15:18;1.73;;;0.40;;
69502;SDS011;56704;54.242;12.442;2022-09-02T11:17:51;1.70;;;0.53;;
69502;SDS011;56704;54.242;12.442;2022-09-02T11:20:27;1.90;;;0.50;;
69502;SDS011;56704;54.242;12.442;2022-09-02T11:23:01;1.52;;;0.60;;
69502;SDS011;56704;54.242;12.442;2022-09-02T11:25:33;2.15;;;0.43;;
69502;SDS011;56704;54.242;12.442;2022-09-02T11:28:06;1.70;;;0.60;;
69502;SDS011;56704;54.242;12.442;2022-09-02T11:30:50;2.47;;;0.40;;
69502;SDS011;56704;54.242;12.442;2022-09-02T11:33:22;1.65;;;0.50;;
69502;SDS011;56704;54.242;12.442;2022-09-02T11:35:56;2.10;;;0.50;;
69502;SDS011;56704;54.242;12.442;2022-09-02T11:38:30;1.95;;;0.50;;
69502;SDS011;56704;54.242;12.442;2022-09-02T11:41:10;2.25;;;0.50;;
69502;SDS011;56704;54.242;12.442;2022-09-02T11:43:49;1.40;;;0.60;;
69502;SDS011;56704;54.242;12.442;2022-09-02T11:46:36;2.05;;;0.40;;
69502;SDS011;56704;54.242;12.442;2022-09-02T11:49:33;1.58;;;0.40;;
69502;SDS011;56704;54.242;12.442;2022-09-02T11:52:21;1.27;;;0.47;;
69502;SDS011;56704;54.242;12.442;2022-09-02T11:54:58;1.10;;;0.32;;
69502;SDS011;56704;54.242;12.442;2022-09-02T11:57:31;1.73;;;0.50;;
69502;SDS011;56704;54.242;12.442;2022-09-02T12:00:06;1.55;;;0.47;;
69502;SDS011;56704;54.242;12.442;2022-09-02T12:02:39;2.05;;;0.40;;
69502;SDS011;56704;54.242;12.442;2022-09-02T12:14:10;2.08;;;0.60;;
69502;SDS011;56704;54.242;12.442;2022-09-02T12:16:59;1.50;;;0.43;;
69502;SDS011;56704;54.242;12.442;2022-09-02T12:19:38;2.25;;;0.50;;
69502;SDS011;56704;54.242;12.442;2022-09-02T12:22:21;1.95;;;0.65;;
69502;SDS011;56704;54.242;12.442;2022-09-02T12:24:53;1.67;;;0.40;;
69502;SDS011;56704;54.242;12.442;2022-09-02T12:27:25;1.77;;;0.50;;
69502;SDS011;56704;54.242;12.442;2022-09-02T12:29:53;1.50;;;0.50;;
69502;SDS011;56704;54.242;12.442;2022-09-02T12:35:31;2.40;;;0.60;;
69502;SDS011;56704;54.242;12.442;2022-09-02T12:38:20;3.73;;;0.50;;
69502;SDS011;56704;54.242;12.442;2022-09-02T12:40:55;1.52;;;0.50;;
69502;SDS011;56704;54.242;12.442;2022-09-02T12:43:42;1.88;;;0.60;;
69502;SDS011;56704;54.242;12.442;2022-09-02T12:46:16;2.47;;;0.60;;
69502;SDS011;56704;54.242;12.442;2022-09-02T12:48:48;1.50;;;0.60;;
69502;SDS011;56704;54.242;12.442;2022-09-02T12:54:20;2.33;;;0.50;;
69502;SDS011;56704;54.242;12.442;2022-09-02T12:56:52;1.70;;;0.57;;
69502;SDS011;56704;54.242;12.442;2022-09-02T12:59:23;1.40;;;0.40;;
69502;SDS011;56704;54.242;12.442;2022-09-02T13:01:58;1.20;;;0.40;;
69502;SDS011;56704;54.242;12.442;2022-09-02T13:04:34;2.43;;;0.57;;
69502;SDS011;56704;54.242;12.442;2022-09-02T13:13:30;1.70;;;0.50;;
69502;SDS011;56704;54.242;12.442;2022-09-02T13:16:15;1.75;;;0.50;;
69502;SDS011;56704;54.242;12.442;2022-09-02T13:18:56;2.10;;;0.80;;
69502;SDS011;56704;54.242;12.442;2022-09-02T13:22:18;2.63;;;0.70;;
69502;SDS011;56704;54.242;12.442;2022-09-02T13:25:10;1.70;;;0.50;;
69502;SDS011;56704;54.242;12.442;2022-09-02T13:31:06;1.67;;;0.60;;
69502;SDS011;56704;54.242;12.442;2022-09-02T13:33:43;3.00;;;0.60;;
69502;SDS011;56704;54.242;12.442;2022-09-02T13:36:10;1.88;;;0.52;;
69502;SDS011;56704;54.242;12.442;2022-09-02T13:38:44;2.63;;;0.40;;
69502;SDS011;56704;54.242;12.442;2022-09-02T13:41:25;2.00;;;0.40;;
69502;SDS011;56704;54.242;12.442;2022-09-02T13:44:08;3.42;;;0.60;;
69502;SDS011;56704;54.242;12.442;2022-09-02T13:46:45;1.97;;;0.50;;
69502;SDS011;56704;54.242;12.442;2022-09-02T13:49:19;2.55;;;0.60;;
69502;SDS011;56704;54.242;12.442;2022-09-02T13:51:48;2.50;;;0.40;;
69502;SDS011;56704;54.242;12.442;2022-09-02T13:54:27;2.13;;;0.60;;
69502;SDS011;56704;54.242;12.442;2022-09-02T13:57:00;2.13;;;0.40;;
69502;SDS011;56704;54.242;12.442;2022-09-02T13:59:30;3.03;;;0.60;;
69502;SDS011;56704;54.242;12.442;2022-09-02T14:02:21;1.58;;;0.50;;
69502;SDS011;56704;54.242;12.442;2022-09-02T14:04:55;2.08;;;0.50;;
69502;SDS011;56704;54.242;12.442;2022-09-02T14:07:30;4.20;;;0.55;;
69502;SDS011;56704;54.242;12.442;2022-09-02T14:10:04;2.88;;;0.50;;
69502;SDS011;56704;54.242;12.442;2022-09-02T14:12:34;1.53;;;0.50;;
69502;SDS011;56704;54.242;12.442;2022-09-02T14:15:04;2.42;;;0.75;;
69502;SDS011;56704;54.242;12.442;2022-09-02T14:17:33;1.67;;;0.60;;
69502;SDS011;56704;54.242;12.442;2022-09-02T14:20:09;2.40;;;0.60;;
69502;SDS011;56704;54.242;12.442;2022-09-02T14:22:50;2.15;;;0.80;;
69502;SDS011;56704;54.242;12.442;2022-09-02T14:25:21;1.70;;;0.60;;
69502;SDS011;56704;54.242;12.442;2022-09-02T14:27:49;1.50;;;0.50;;
69502;SDS011;56704;54.242;12.442;2022-09-02T14:30:27;1.45;;;0.50;;
69502;SDS011;56704;54.242;12.442;2022-09-02T14:33:16;2.50;;;0.50;;
69502;SDS011;56704;54.242;12.442;2022-09-02T14:35:55;2.10;;;0.50;;
69502;SDS011;56704;54.242;12.442;2022-09-02T14:38:25;2.83;;;0.67;;
69502;SDS011;56704;54.242;12.442;2022-09-02T14:41:04;2.40;;;0.70;;
69502;SDS011;56704;54.242;12.442;2022-09-02T14:43:42;3.38;;;0.70;;
69502;SDS011;56704;54.242;12.442;2022-09-02T14:46:22;1.73;;;0.50;;
69502;SDS011;56704;54.242;12.442;2022-09-02T14:48:53;1.90;;;0.52;;
69502;SDS011;56704;54.242;12.442;2022-09-02T14:51:31;1.27;;;0.53;;
69502;SDS011;56704;54.242;12.442;2022-09-02T14:54:03;1.40;;;0.55;;
69502;SDS011;56704;54.242;12.442;2022-09-02T14:56:45;1.20;;;0.32;;
69502;SDS011;56704;54.242;12.442;2022-09-02T14:59:13;2.65;;;0.60;;
69502;SDS011;56704;54.242;12.442;2022-09-02T15:01:41;1.52;;;0.47;;
69502;SDS011;56704;54.242;12.442;2022-09-02T15:04:12;2.20;;;0.70;;
69502;SDS011;56704;54.242;12.442;2022-09-02T15:06:41;2.08;;;0.70;;
69502;SDS011;56704;54.242;12.442;2022-09-02T15:09:08;2.42;;;0.50;;
69502;SDS011;56704;54.242;12.442;2022-09-02T15:11:35;1.83;;;0.57;;
69502;SDS011;56704;54.242;12.442;2022-09-02T15:14:06;1.90;;;0.40;;
69502;SDS011;56704;54.242;12.442;2022-09-02T15:16:33;2.53;;;0.70;;
69502;SDS011;56704;54.242;12.442;2022-09-02T15:19:00;1.40;;;0.40;;
69502;SDS011;56704;54.242;12.442;2022-09-02T15:21:27;2.00;;;0.60;;
69502;SDS011;56704;54.242;12.442;2022-09-02T15:23:55;1.33;;;0.50;;
69502;SDS011;56704;54.242;12.442;2022-09-02T15:26:21;1.77;;;0.50;;
69502;SDS011;56704;54.242;12.442;2022-09-02T15:28:48;2.13;;;0.50;;
69502;SDS011;56704;54.242;12.442;2022-09-02T15:31:17;2.15;;;0.60;;